sensor_id;sensor_type;location;lat;lon;timestamp;temperature;humidity
26541;DHT22;14206;50.202;10.948;2023-08-17T00:01:57;22.60;89.00
26541;DHT22;14206;50.202;10.948;2023-08-17T00:04:25;22.50;89.20
26541;DHT22;14206;50.202;10.948;2023-08-17T00:06:52;22.50;89.60
26541;DHT22;14206;50.202;10.948;2023-08-17T00:09:19;22.50;89.70
26541;DHT22;14206;50.202;10.948;2023-08-17T00:11:46;22.50;89.80
26541;DHT22;14206;50.202;10.948;2023-08-17T00:14:13;22.50;89.40
26541;DHT22;14206;50.202;10.948;2023-08-17T00:16:41;22.40;89.60
26541;DHT22;14206;50.202;10.948;2023-08-17T00:19:08;22.40;89.90
26541;DHT22;14206;50.202;10.948;2023-08-17T00:21:35;22.30;89.90
26541;DHT22;14206;50.202;10.948;2023-08-17T00:24:02;22.30;90.30
26541;DHT22;14206;50.202;10.948;2023-08-17T00:26:29;22.20;90.70
26541;DHT22;14206;50.202;10.948;2023-08-17T00:28:56;22.10;91.30
26541;DHT22;14206;50.202;10.948;2023-08-17T00:31:23;22.00;91.70
26541;DHT22;14206;50.202;10.948;2023-08-17T00:33:50;21.90;92.10
26541;DHT22;14206;50.202;10.948;2023-08-17T00:36:17;21.80;92.50
26541;DHT22;14206;50.202;10.948;2023-08-17T00:38:44;21.70;92.70
26541;DHT22;14206;50.202;10.948;2023-08-17T00:41:11;21.60;93.40
26541;DHT22;14206;50.202;10.948;2023-08-17T00:43:37;21.60;93.90
26541;DHT22;14206;50.202;10.948;2023-08-17T00:46:04;21.60;93.90
26541;DHT22;14206;50.202;10.948;2023-08-17T00:48:33;21.60;93.80
26541;DHT22;14206;50.202;10.948;2023-08-17T00:51:01;21.60;93.80
26541;DHT22;14206;50.202;10.948;2023-08-17T00:53:30;21.60;93.80
26541;DHT22;14206;50.202;10.948;2023-08-17T00:56:00;21.60;93.90
26541;DHT22;14206;50.202;10.948;2023-08-17T00:58:27;21.60;93.90
26541;DHT22;14206;50.202;10.948;2023-08-17T01:00:55;21.60;94.00
26541;DHT22;14206;50.202;10.948;2023-08-17T01:03:23;21.60;94.20
26541;DHT22;14206;50.202;10.948;2023-08-17T01:05:51;21.60;94.50
26541;DHT22;14206;50.202;10.948;2023-08-17T01:08:18;21.50;95.00
26541;DHT22;14206;50.202;10.948;2023-08-17T01:11:00;21.50;95.20
26541;DHT22;14206;50.202;10.948;2023-08-17T01:13:44;21.40;95.40
26541;DHT22;14206;50.202;10.948;2023-08-17T01:16:21;21.40;96.10
26541;DHT22;14206;50.202;10.948;2023-08-17T01:18:51;21.30;96.20
26541;DHT22;14206;50.202;10.948;2023-08-17T01:21:21;21.20;96.10
26541;DHT22;14206;50.202;10.948;2023-08-17T01:23:50;21.20;96.60
26541;DHT22;14206;50.202;10.948;2023-08-17T01:26:17;21.10;96.60
26541;DHT22;14206;50.202;10.948;2023-08-17T01:28:46;20.90;96.60
26541;DHT22;14206;50.202;10.948;2023-08-17T01:31:40;20.80;96.60
26541;DHT22;14206;50.202;10.948;2023-08-17T01:34:10;20.80;96.60
26541;DHT22;14206;50.202;10.948;2023-08-17T01:36:53;20.80;96.60
26541;DHT22;14206;50.202;10.948;2023-08-17T01:39:26;20.70;96.60
26541;DHT22;14206;50.202;10.948;2023-08-17T01:41:57;20.70;96.60
26541;DHT22;14206;50.202;10.948;2023-08-17T01:44:26;20.70;96.60
26541;DHT22;14206;50.202;10.948;2023-08-17T01:46:54;20.70;96.60
26541;DHT22;14206;50.202;10.948;2023-08-17T01:49:22;20.70;96.60
26541;DHT22;14206;50.202;10.948;2023-08-17T01:51:49;20.60;96.60
26541;DHT22;14206;50.202;10.948;2023-08-17T01:54:16;20.60;96.60
26541;DHT22;14206;50.202;10.948;2023-08-17T01:56:42;20.60;96.60
26541;DHT22;14206;50.202;10.948;2023-08-17T01:59:09;20.60;96.60
26541;DHT22;14206;50.202;10.948;2023-08-17T02:01:37;20.60;96.60
26541;DHT22;14206;50.202;10.948;2023-08-17T02:04:04;20.60;96.60
26541;DHT22;14206;50.202;10.948;2023-08-17T02:06:32;20.70;96.60
26541;DHT22;14206;50.202;10.948;2023-08-17T02:08:59;20.70;96.60
26541;DHT22;14206;50.202;10.948;2023-08-17T02:11:26;20.80;96.60
26541;DHT22;14206;50.202;10.948;2023-08-17T02:13:53;20.80;96.60
26541;DHT22;14206;50.202;10.948;2023-08-17T02:16:20;20.80;96.60
26541;DHT22;14206;50.202;10.948;2023-08-17T02:18:48;20.80;96.60
26541;DHT22;14206;50.202;10.948;2023-08-17T02:21:15;20.80;96.60
26541;DHT22;14206;50.202;10.948;2023-08-17T02:23:42;20.80;96.60
26541;DHT22;14206;50.202;10.948;2023-08-17T02:26:10;20.90;96.60
26541;DHT22;14206;50.202;10.948;2023-08-17T02:28:37;20.90;96.60
26541;DHT22;14206;50.202;10.948;2023-08-17T02:31:05;21.00;96.60
26541;DHT22;14206;50.202;10.948;2023-08-17T02:33:33;20.90;96.60
26541;DHT22;14206;50.202;10.948;2023-08-17T02:36:00;20.90;96.60
26541;DHT22;14206;50.202;10.948;2023-08-17T02:38:28;20.90;96.60
26541;DHT22;14206;50.202;10.948;2023-08-17T02:40:55;20.90;96.60
26541;DHT22;14206;50.202;10.948;2023-08-17T02:43:25;20.90;96.60
26541;DHT22;14206;50.202;10.948;2023-08-17T02:45:52;20.80;96.60
26541;DHT22;14206;50.202;10.948;2023-08-17T02:48:20;20.70;96.60
26541;DHT22;14206;50.202;10.948;2023-08-17T02:50:46;20.50;96.60
26541;DHT22;14206;50.202;10.948;2023-08-17T02:53:13;20.40;96.60
26541;DHT22;14206;50.202;10.948;2023-08-17T02:55:40;20.40;96.60
26541;DHT22;14206;50.202;10.948;2023-08-17T02:58:07;20.30;96.60
26541;DHT22;14206;50.202;10.948;2023-08-17T03:00:34;20.30;96.60
26541;DHT22;14206;50.202;10.948;2023-08-17T03:03:01;20.30;96.60
26541;DHT22;14206;50.202;10.948;2023-08-17T03:05:28;20.20;96.60
26541;DHT22;14206;50.202;10.948;2023-08-17T03:07:55;20.20;96.60
26541;DHT22;14206;50.202;10.948;2023-08-17T03:10:22;20.20;96.60
26541;DHT22;14206;50.202;10.948;2023-08-17T03:12:49;20.10;96.60
26541;DHT22;14206;50.202;10.948;2023-08-17T03:15:16;20.00;96.60
26541;DHT22;14206;50.202;10.948;2023-08-17T03:17:44;20.00;96.60
26541;DHT22;14206;50.202;10.948;2023-08-17T03:20:11;19.90;96.60
26541;DHT22;14206;50.202;10.948;2023-08-17T03:22:38;19.90;96.60
26541;DHT22;14206;50.202;10.948;2023-08-17T03:25:06;19.90;96.60
26541;DHT22;14206;50.202;10.948;2023-08-17T03:27:33;19.90;96.60
26541;DHT22;14206;50.202;10.948;2023-08-17T03:30:00;20.00;96.60
26541;DHT22;14206;50.202;10.948;2023-08-17T03:32:27;20.00;96.60
26541;DHT22;14206;50.202;10.948;2023-08-17T03:34:54;20.10;96.60
26541;DHT22;14206;50.202;10.948;2023-08-17T03:37:22;20.20;96.60
26541;DHT22;14206;50.202;10.948;2023-08-17T03:39:49;20.20;96.60
26541;DHT22;14206;50.202;10.948;2023-08-17T03:42:15;20.30;96.60
26541;DHT22;14206;50.202;10.948;2023-08-17T03:44:42;20.30;96.60
26541;DHT22;14206;50.202;10.948;2023-08-17T03:47:10;20.30;96.60
26541;DHT22;14206;50.202;10.948;2023-08-17T03:49:37;20.30;96.60
26541;DHT22;14206;50.202;10.948;2023-08-17T03:52:04;20.30;96.60
26541;DHT22;14206;50.202;10.948;2023-08-17T03:54:31;20.40;96.60
26541;DHT22;14206;50.202;10.948;2023-08-17T03:56:58;20.40;96.60
26541;DHT22;14206;50.202;10.948;2023-08-17T03:59:24;20.40;96.60
26541;DHT22;14206;50.202;10.948;2023-08-17T04:01:52;20.40;96.60
26541;DHT22;14206;50.202;10.948;2023-08-17T04:04:19;20.40;96.60
26541;DHT22;14206;50.202;10.948;2023-08-17T04:06:45;20.40;96.60
26541;DHT22;14206;50.202;10.948;2023-08-17T04:09:13;20.50;96.60
26541;DHT22;14206;50.202;10.948;2023-08-17T04:11:39;20.50;96.60
26541;DHT22;14206;50.202;10.948;2023-08-17T04:14:06;20.50;96.60
26541;DHT22;14206;50.202;10.948;2023-08-17T04:16:35;20.50;96.60
26541;DHT22;14206;50.202;10.948;2023-08-17T04:19:02;20.50;96.60
26541;DHT22;14206;50.202;10.948;2023-08-17T04:21:30;20.60;96.60
26541;DHT22;14206;50.202;10.948;2023-08-17T04:23:57;20.60;96.60
26541;DHT22;14206;50.202;10.948;2023-08-17T04:26:24;20.60;96.60
26541;DHT22;14206;50.202;10.948;2023-08-17T04:28:51;20.70;96.60
26541;DHT22;14206;50.202;10.948;2023-08-17T04:31:18;20.70;96.60
26541;DHT22;14206;50.202;10.948;2023-08-17T04:33:51;20.70;96.60
26541;DHT22;14206;50.202;10.948;2023-08-17T04:36:18;20.80;96.60
26541;DHT22;14206;50.202;10.948;2023-08-17T04:38:45;20.80;96.60
26541;DHT22;14206;50.202;10.948;2023-08-17T04:41:12;20.90;96.60
26541;DHT22;14206;50.202;10.948;2023-08-17T04:43:39;20.90;96.60
26541;DHT22;14206;50.202;10.948;2023-08-17T04:46:07;20.90;96.60
26541;DHT22;14206;50.202;10.948;2023-08-17T04:48:34;20.90;96.60
26541;DHT22;14206;50.202;10.948;2023-08-17T04:51:01;20.90;96.60
26541;DHT22;14206;50.202;10.948;2023-08-17T04:53:27;20.80;96.60
26541;DHT22;14206;50.202;10.948;2023-08-17T04:55:54;20.90;96.60
26541;DHT22;14206;50.202;10.948;2023-08-17T04:58:21;20.80;96.60
26541;DHT22;14206;50.202;10.948;2023-08-17T05:00:49;20.80;96.60
26541;DHT22;14206;50.202;10.948;2023-08-17T05:03:15;20.80;96.60
26541;DHT22;14206;50.202;10.948;2023-08-17T05:05:59;20.80;96.60
26541;DHT22;14206;50.202;10.948;2023-08-17T05:08:26;20.80;96.60
26541;DHT22;14206;50.202;10.948;2023-08-17T05:10:53;20.70;96.60
26541;DHT22;14206;50.202;10.948;2023-08-17T05:13:20;20.70;96.60
26541;DHT22;14206;50.202;10.948;2023-08-17T05:15:47;20.70;96.60
26541;DHT22;14206;50.202;10.948;2023-08-17T05:18:14;20.80;96.60
26541;DHT22;14206;50.202;10.948;2023-08-17T05:20:43;20.80;96.60
26541;DHT22;14206;50.202;10.948;2023-08-17T05:23:10;20.80;96.60
26541;DHT22;14206;50.202;10.948;2023-08-17T05:25:37;20.80;96.60
26541;DHT22;14206;50.202;10.948;2023-08-17T05:28:04;20.80;96.60
26541;DHT22;14206;50.202;10.948;2023-08-17T05:30:32;20.80;96.60
26541;DHT22;14206;50.202;10.948;2023-08-17T05:32:59;20.90;96.60
26541;DHT22;14206;50.202;10.948;2023-08-17T05:35:27;20.90;96.60
26541;DHT22;14206;50.202;10.948;2023-08-17T05:37:53;21.00;96.60
26541;DHT22;14206;50.202;10.948;2023-08-17T05:40:20;21.10;96.60
26541;DHT22;14206;50.202;10.948;2023-08-17T05:42:47;21.10;96.60
26541;DHT22;14206;50.202;10.948;2023-08-17T05:45:14;21.20;96.60
26541;DHT22;14206;50.202;10.948;2023-08-17T05:47:41;21.30;96.60
26541;DHT22;14206;50.202;10.948;2023-08-17T05:50:08;21.30;96.60
26541;DHT22;14206;50.202;10.948;2023-08-17T05:52:35;21.40;96.60
26541;DHT22;14206;50.202;10.948;2023-08-17T05:55:02;21.50;96.60
26541;DHT22;14206;50.202;10.948;2023-08-17T05:57:29;21.60;96.60
26541;DHT22;14206;50.202;10.948;2023-08-17T05:59:56;21.70;96.60
26541;DHT22;14206;50.202;10.948;2023-08-17T06:02:22;21.70;96.60
26541;DHT22;14206;50.202;10.948;2023-08-17T06:04:49;21.80;96.60
26541;DHT22;14206;50.202;10.948;2023-08-17T06:07:16;21.90;96.60
26541;DHT22;14206;50.202;10.948;2023-08-17T06:09:43;21.90;96.60
26541;DHT22;14206;50.202;10.948;2023-08-17T06:12:10;22.00;96.60
26541;DHT22;14206;50.202;10.948;2023-08-17T06:14:37;22.00;96.60
26541;DHT22;14206;50.202;10.948;2023-08-17T06:17:04;22.10;96.60
26541;DHT22;14206;50.202;10.948;2023-08-17T06:19:31;22.20;96.60
26541;DHT22;14206;50.202;10.948;2023-08-17T06:21:57;22.30;96.60
26541;DHT22;14206;50.202;10.948;2023-08-17T06:24:25;22.40;96.60
26541;DHT22;14206;50.202;10.948;2023-08-17T06:26:51;22.50;96.60
26541;DHT22;14206;50.202;10.948;2023-08-17T06:29:18;22.50;96.60
26541;DHT22;14206;50.202;10.948;2023-08-17T06:31:45;22.70;96.60
26541;DHT22;14206;50.202;10.948;2023-08-17T06:34:12;22.80;96.60
26541;DHT22;14206;50.202;10.948;2023-08-17T06:36:39;22.90;96.60
26541;DHT22;14206;50.202;10.948;2023-08-17T06:39:06;22.90;96.60
26541;DHT22;14206;50.202;10.948;2023-08-17T06:41:33;23.00;96.60
26541;DHT22;14206;50.202;10.948;2023-08-17T06:44:00;23.20;96.60
26541;DHT22;14206;50.202;10.948;2023-08-17T06:46:27;23.30;96.10
26541;DHT22;14206;50.202;10.948;2023-08-17T06:48:54;23.40;95.80
26541;DHT22;14206;50.202;10.948;2023-08-17T06:51:21;23.50;94.80
26541;DHT22;14206;50.202;10.948;2023-08-17T06:53:48;23.60;94.60
26541;DHT22;14206;50.202;10.948;2023-08-17T06:56:15;23.70;94.30
26541;DHT22;14206;50.202;10.948;2023-08-17T06:58:44;23.80;94.20
26541;DHT22;14206;50.202;10.948;2023-08-17T07:01:11;23.90;94.20
26541;DHT22;14206;50.202;10.948;2023-08-17T07:03:38;24.10;93.30
26541;DHT22;14206;50.202;10.948;2023-08-17T07:06:05;24.20;93.40
26541;DHT22;14206;50.202;10.948;2023-08-17T07:08:32;24.30;92.50
26541;DHT22;14206;50.202;10.948;2023-08-17T07:10:59;24.50;92.80
26541;DHT22;14206;50.202;10.948;2023-08-17T07:13:26;24.60;92.10
26541;DHT22;14206;50.202;10.948;2023-08-17T07:15:53;24.90;91.40
26541;DHT22;14206;50.202;10.948;2023-08-17T07:18:20;25.20;90.00
26541;DHT22;14206;50.202;10.948;2023-08-17T07:20:47;25.50;89.60
26541;DHT22;14206;50.202;10.948;2023-08-17T07:23:15;25.70;88.80
26541;DHT22;14206;50.202;10.948;2023-08-17T07:25:42;25.80;88.10
26541;DHT22;14206;50.202;10.948;2023-08-17T07:28:10;25.90;87.10
26541;DHT22;14206;50.202;10.948;2023-08-17T07:30:36;25.90;87.30
26541;DHT22;14206;50.202;10.948;2023-08-17T07:33:03;26.00;86.90
26541;DHT22;14206;50.202;10.948;2023-08-17T07:35:30;26.20;85.80
26541;DHT22;14206;50.202;10.948;2023-08-17T07:37:57;26.70;85.10
26541;DHT22;14206;50.202;10.948;2023-08-17T07:40:34;27.60;83.40
26541;DHT22;14206;50.202;10.948;2023-08-17T07:43:01;28.10;80.90
26541;DHT22;14206;50.202;10.948;2023-08-17T07:45:28;28.20;81.00
26541;DHT22;14206;50.202;10.948;2023-08-17T07:47:56;28.50;80.00
26541;DHT22;14206;50.202;10.948;2023-08-17T07:50:23;29.10;79.10
26541;DHT22;14206;50.202;10.948;2023-08-17T07:52:50;29.70;77.40
26541;DHT22;14206;50.202;10.948;2023-08-17T07:55:17;30.30;76.80
26541;DHT22;14206;50.202;10.948;2023-08-17T07:57:46;31.10;74.90
26541;DHT22;14206;50.202;10.948;2023-08-17T08:00:13;32.00;73.60
26541;DHT22;14206;50.202;10.948;2023-08-17T08:02:40;32.70;70.70
26541;DHT22;14206;50.202;10.948;2023-08-17T08:05:07;33.30;69.10
26541;DHT22;14206;50.202;10.948;2023-08-17T08:07:34;33.80;67.10
26541;DHT22;14206;50.202;10.948;2023-08-17T08:10:01;34.40;66.20
26541;DHT22;14206;50.202;10.948;2023-08-17T08:12:28;35.20;64.30
26541;DHT22;14206;50.202;10.948;2023-08-17T08:14:55;36.00;63.10
26541;DHT22;14206;50.202;10.948;2023-08-17T08:17:22;36.70;62.00
26541;DHT22;14206;50.202;10.948;2023-08-17T08:19:49;37.50;60.70
26541;DHT22;14206;50.202;10.948;2023-08-17T08:22:20;38.30;59.30
26541;DHT22;14206;50.202;10.948;2023-08-17T08:24:47;38.90;58.20
26541;DHT22;14206;50.202;10.948;2023-08-17T08:27:14;39.40;57.70
26541;DHT22;14206;50.202;10.948;2023-08-17T08:29:41;40.00;55.70
26541;DHT22;14206;50.202;10.948;2023-08-17T08:32:07;40.50;54.30
26541;DHT22;14206;50.202;10.948;2023-08-17T08:34:35;40.70;53.90
26541;DHT22;14206;50.202;10.948;2023-08-17T08:37:04;41.00;52.80
26541;DHT22;14206;50.202;10.948;2023-08-17T08:39:30;41.30;53.10
26541;DHT22;14206;50.202;10.948;2023-08-17T08:41:58;41.70;50.60
26541;DHT22;14206;50.202;10.948;2023-08-17T08:44:25;41.90;50.00
26541;DHT22;14206;50.202;10.948;2023-08-17T08:46:54;41.90;50.70
26541;DHT22;14206;50.202;10.948;2023-08-17T08:49:23;42.10;50.40
26541;DHT22;14206;50.202;10.948;2023-08-17T08:51:51;42.40;49.80
26541;DHT22;14206;50.202;10.948;2023-08-17T08:54:26;42.50;50.00
26541;DHT22;14206;50.202;10.948;2023-08-17T08:57:01;42.90;48.00
26541;DHT22;14206;50.202;10.948;2023-08-17T08:59:31;43.10;49.70
26541;DHT22;14206;50.202;10.948;2023-08-17T09:01:58;43.30;48.80
26541;DHT22;14206;50.202;10.948;2023-08-17T09:04:26;43.70;48.10
26541;DHT22;14206;50.202;10.948;2023-08-17T09:06:53;43.90;46.80
26541;DHT22;14206;50.202;10.948;2023-08-17T09:09:22;43.90;46.30
26541;DHT22;14206;50.202;10.948;2023-08-17T09:11:56;43.90;46.10
26541;DHT22;14206;50.202;10.948;2023-08-17T09:14:23;43.60;46.40
26541;DHT22;14206;50.202;10.948;2023-08-17T09:16:49;43.60;46.50
26541;DHT22;14206;50.202;10.948;2023-08-17T09:19:18;43.70;47.70
26541;DHT22;14206;50.202;10.948;2023-08-17T09:21:45;43.80;45.50
26541;DHT22;14206;50.202;10.948;2023-08-17T09:24:16;43.80;47.60
26541;DHT22;14206;50.202;10.948;2023-08-17T09:26:43;44.10;48.20
26541;DHT22;14206;50.202;10.948;2023-08-17T09:29:20;44.50;47.20
26541;DHT22;14206;50.202;10.948;2023-08-17T09:31:47;44.80;45.00
26541;DHT22;14206;50.202;10.948;2023-08-17T09:34:15;44.90;46.10
26541;DHT22;14206;50.202;10.948;2023-08-17T09:36:48;45.10;45.30
26541;DHT22;14206;50.202;10.948;2023-08-17T09:39:17;45.20;45.80
26541;DHT22;14206;50.202;10.948;2023-08-17T09:41:45;45.40;45.20
26541;DHT22;14206;50.202;10.948;2023-08-17T09:44:11;45.50;45.90
26541;DHT22;14206;50.202;10.948;2023-08-17T09:46:42;45.80;45.20
26541;DHT22;14206;50.202;10.948;2023-08-17T09:49:09;45.90;44.70
26541;DHT22;14206;50.202;10.948;2023-08-17T09:51:36;45.90;44.30
26541;DHT22;14206;50.202;10.948;2023-08-17T09:54:20;46.10;43.50
26541;DHT22;14206;50.202;10.948;2023-08-17T09:56:51;45.90;43.30
26541;DHT22;14206;50.202;10.948;2023-08-17T09:59:19;45.70;42.60
26541;DHT22;14206;50.202;10.948;2023-08-17T10:01:48;45.70;44.40
26541;DHT22;14206;50.202;10.948;2023-08-17T10:04:23;45.70;42.40
26541;DHT22;14206;50.202;10.948;2023-08-17T10:06:56;45.50;42.50
26541;DHT22;14206;50.202;10.948;2023-08-17T10:09:25;45.40;43.40
26541;DHT22;14206;50.202;10.948;2023-08-17T10:11:57;45.40;43.40
26541;DHT22;14206;50.202;10.948;2023-08-17T10:14:29;45.50;42.40
26541;DHT22;14206;50.202;10.948;2023-08-17T10:17:09;45.50;42.10
26541;DHT22;14206;50.202;10.948;2023-08-17T10:19:47;45.40;41.80
26541;DHT22;14206;50.202;10.948;2023-08-17T10:22:34;45.10;41.40
26541;DHT22;14206;50.202;10.948;2023-08-17T10:25:03;44.90;43.50
26541;DHT22;14206;50.202;10.948;2023-08-17T10:27:31;44.80;44.30
26541;DHT22;14206;50.202;10.948;2023-08-17T10:29:59;45.00;44.70
26541;DHT22;14206;50.202;10.948;2023-08-17T10:32:27;45.10;43.10
26541;DHT22;14206;50.202;10.948;2023-08-17T10:34:55;45.40;42.80
26541;DHT22;14206;50.202;10.948;2023-08-17T10:37:23;45.70;42.50
26541;DHT22;14206;50.202;10.948;2023-08-17T10:39:51;46.00;42.60
26541;DHT22;14206;50.202;10.948;2023-08-17T10:42:35;46.50;42.60
26541;DHT22;14206;50.202;10.948;2023-08-17T10:45:29;47.00;42.70
26541;DHT22;14206;50.202;10.948;2023-08-17T10:50:37;47.00;39.60
26541;DHT22;14206;50.202;10.948;2023-08-17T10:53:11;47.10;41.60
26541;DHT22;14206;50.202;10.948;2023-08-17T10:55:45;47.10;41.50
26541;DHT22;14206;50.202;10.948;2023-08-17T10:58:18;47.10;41.60
26541;DHT22;14206;50.202;10.948;2023-08-17T11:00:45;47.00;41.10
26541;DHT22;14206;50.202;10.948;2023-08-17T11:03:19;46.90;41.70
26541;DHT22;14206;50.202;10.948;2023-08-17T11:05:54;46.70;41.90
26541;DHT22;14206;50.202;10.948;2023-08-17T11:08:31;46.60;41.90
26541;DHT22;14206;50.202;10.948;2023-08-17T11:13:35;47.20;41.80
26541;DHT22;14206;50.202;10.948;2023-08-17T11:16:03;47.40;41.00
26541;DHT22;14206;50.202;10.948;2023-08-17T11:18:32;47.50;39.60
26541;DHT22;14206;50.202;10.948;2023-08-17T11:21:00;47.60;39.70
26541;DHT22;14206;50.202;10.948;2023-08-17T11:23:29;47.40;40.70
26541;DHT22;14206;50.202;10.948;2023-08-17T11:25:56;47.00;41.10
26541;DHT22;14206;50.202;10.948;2023-08-17T11:28:24;46.90;40.30
26541;DHT22;14206;50.202;10.948;2023-08-17T11:31:01;47.00;40.20
26541;DHT22;14206;50.202;10.948;2023-08-17T11:33:29;47.00;38.90
26541;DHT22;14206;50.202;10.948;2023-08-17T11:35:58;46.90;40.40
26541;DHT22;14206;50.202;10.948;2023-08-17T11:38:35;46.90;41.20
26541;DHT22;14206;50.202;10.948;2023-08-17T11:41:03;46.40;42.00
26541;DHT22;14206;50.202;10.948;2023-08-17T11:43:31;46.00;41.70
26541;DHT22;14206;50.202;10.948;2023-08-17T11:46:00;45.90;40.90
26541;DHT22;14206;50.202;10.948;2023-08-17T11:48:28;45.80;41.10
26541;DHT22;14206;50.202;10.948;2023-08-17T11:50:55;45.80;42.20
26541;DHT22;14206;50.202;10.948;2023-08-17T11:53:22;45.80;42.70
26541;DHT22;14206;50.202;10.948;2023-08-17T11:55:49;45.60;43.70
26541;DHT22;14206;50.202;10.948;2023-08-17T11:58:39;45.40;42.90
26541;DHT22;14206;50.202;10.948;2023-08-17T12:01:09;45.30;43.00
26541;DHT22;14206;50.202;10.948;2023-08-17T12:03:37;45.20;42.20
26541;DHT22;14206;50.202;10.948;2023-08-17T12:06:04;44.90;43.90
26541;DHT22;14206;50.202;10.948;2023-08-17T12:08:31;45.00;42.10
26541;DHT22;14206;50.202;10.948;2023-08-17T12:10:58;44.90;43.10
26541;DHT22;14206;50.202;10.948;2023-08-17T12:13:35;45.10;41.80
26541;DHT22;14206;50.202;10.948;2023-08-17T12:16:02;45.00;40.30
26541;DHT22;14206;50.202;10.948;2023-08-17T12:18:33;44.80;41.30
26541;DHT22;14206;50.202;10.948;2023-08-17T12:21:01;44.60;41.60
26541;DHT22;14206;50.202;10.948;2023-08-17T12:23:28;43.50;43.90
26541;DHT22;14206;50.202;10.948;2023-08-17T12:25:55;42.80;45.40
26541;DHT22;14206;50.202;10.948;2023-08-17T12:28:23;43.00;45.70
26541;DHT22;14206;50.202;10.948;2023-08-17T12:31:01;43.00;44.30
26541;DHT22;14206;50.202;10.948;2023-08-17T12:33:29;43.20;43.30
26541;DHT22;14206;50.202;10.948;2023-08-17T12:35:56;43.10;42.70
26541;DHT22;14206;50.202;10.948;2023-08-17T12:38:24;43.30;43.40
26541;DHT22;14206;50.202;10.948;2023-08-17T12:40:51;43.50;43.90
26541;DHT22;14206;50.202;10.948;2023-08-17T12:43:18;43.30;44.20
26541;DHT22;14206;50.202;10.948;2023-08-17T12:45:45;43.00;42.00
26541;DHT22;14206;50.202;10.948;2023-08-17T12:48:12;42.90;44.40
26541;DHT22;14206;50.202;10.948;2023-08-17T12:50:39;42.80;43.40
26541;DHT22;14206;50.202;10.948;2023-08-17T12:53:10;43.00;43.20
26541;DHT22;14206;50.202;10.948;2023-08-17T12:55:37;42.90;43.80
26541;DHT22;14206;50.202;10.948;2023-08-17T12:58:07;42.80;42.30
26541;DHT22;14206;50.202;10.948;2023-08-17T13:00:34;42.30;45.50
26541;DHT22;14206;50.202;10.948;2023-08-17T13:03:01;42.00;46.00
26541;DHT22;14206;50.202;10.948;2023-08-17T13:05:28;41.90;44.10
26541;DHT22;14206;50.202;10.948;2023-08-17T13:07:55;41.60;46.40
26541;DHT22;14206;50.202;10.948;2023-08-17T13:10:22;41.00;47.30
26541;DHT22;14206;50.202;10.948;2023-08-17T13:12:49;40.50;46.40
26541;DHT22;14206;50.202;10.948;2023-08-17T13:15:22;40.10;48.30
26541;DHT22;14206;50.202;10.948;2023-08-17T13:17:48;39.60;49.10
26541;DHT22;14206;50.202;10.948;2023-08-17T13:20:16;39.30;49.70
26541;DHT22;14206;50.202;10.948;2023-08-17T13:22:43;39.00;50.00
26541;DHT22;14206;50.202;10.948;2023-08-17T13:25:10;38.50;50.10
26541;DHT22;14206;50.202;10.948;2023-08-17T13:27:37;38.00;51.30
26541;DHT22;14206;50.202;10.948;2023-08-17T13:30:04;37.40;52.90
26541;DHT22;14206;50.202;10.948;2023-08-17T13:32:31;36.90;53.50
26541;DHT22;14206;50.202;10.948;2023-08-17T13:34:58;36.30;55.30
26541;DHT22;14206;50.202;10.948;2023-08-17T13:37:25;36.00;52.30
26541;DHT22;14206;50.202;10.948;2023-08-17T13:39:52;35.60;54.50
26541;DHT22;14206;50.202;10.948;2023-08-17T13:42:19;35.20;55.30
26541;DHT22;14206;50.202;10.948;2023-08-17T13:44:46;34.80;56.20
26541;DHT22;14206;50.202;10.948;2023-08-17T13:47:13;34.50;58.00
26541;DHT22;14206;50.202;10.948;2023-08-17T13:49:41;34.10;58.30
26541;DHT22;14206;50.202;10.948;2023-08-17T13:52:08;33.70;59.80
26541;DHT22;14206;50.202;10.948;2023-08-17T13:54:35;33.40;60.20
26541;DHT22;14206;50.202;10.948;2023-08-17T13:57:02;33.20;59.50
26541;DHT22;14206;50.202;10.948;2023-08-17T13:59:29;33.00;61.10
26541;DHT22;14206;50.202;10.948;2023-08-17T14:01:56;32.70;63.00
26541;DHT22;14206;50.202;10.948;2023-08-17T14:04:26;32.50;63.10
26541;DHT22;14206;50.202;10.948;2023-08-17T14:06:53;32.40;61.80
26541;DHT22;14206;50.202;10.948;2023-08-17T14:09:20;32.30;62.20
26541;DHT22;14206;50.202;10.948;2023-08-17T14:11:46;32.30;62.70
26541;DHT22;14206;50.202;10.948;2023-08-17T14:14:14;32.30;63.70
26541;DHT22;14206;50.202;10.948;2023-08-17T14:16:42;32.40;64.50
26541;DHT22;14206;50.202;10.948;2023-08-17T14:19:09;32.40;62.70
26541;DHT22;14206;50.202;10.948;2023-08-17T14:21:36;32.40;63.80
26541;DHT22;14206;50.202;10.948;2023-08-17T14:24:03;32.40;63.40
26541;DHT22;14206;50.202;10.948;2023-08-17T14:26:30;32.40;64.70
26541;DHT22;14206;50.202;10.948;2023-08-17T14:28:59;32.30;62.60
26541;DHT22;14206;50.202;10.948;2023-08-17T14:31:26;32.20;61.90
26541;DHT22;14206;50.202;10.948;2023-08-17T14:33:56;32.20;64.50
26541;DHT22;14206;50.202;10.948;2023-08-17T14:36:23;32.20;64.70
26541;DHT22;14206;50.202;10.948;2023-08-17T14:38:49;32.00;64.50
26541;DHT22;14206;50.202;10.948;2023-08-17T14:41:16;31.90;66.00
26541;DHT22;14206;50.202;10.948;2023-08-17T14:43:43;31.80;66.50
26541;DHT22;14206;50.202;10.948;2023-08-17T14:46:10;31.70;66.50
26541;DHT22;14206;50.202;10.948;2023-08-17T14:48:40;31.60;65.70
26541;DHT22;14206;50.202;10.948;2023-08-17T14:51:06;31.50;67.20
26541;DHT22;14206;50.202;10.948;2023-08-17T14:53:33;31.30;68.10
26541;DHT22;14206;50.202;10.948;2023-08-17T14:56:05;31.20;68.00
26541;DHT22;14206;50.202;10.948;2023-08-17T14:58:32;31.10;68.90
26541;DHT22;14206;50.202;10.948;2023-08-17T15:00:59;31.00;69.20
26541;DHT22;14206;50.202;10.948;2023-08-17T15:03:26;30.90;69.40
26541;DHT22;14206;50.202;10.948;2023-08-17T15:05:53;30.80;70.20
26541;DHT22;14206;50.202;10.948;2023-08-17T15:08:19;30.80;70.80
26541;DHT22;14206;50.202;10.948;2023-08-17T15:10:47;30.70;70.50
26541;DHT22;14206;50.202;10.948;2023-08-17T15:13:14;30.60;70.90
26541;DHT22;14206;50.202;10.948;2023-08-17T15:15:41;30.60;71.60
26541;DHT22;14206;50.202;10.948;2023-08-17T15:18:09;30.60;71.90
26541;DHT22;14206;50.202;10.948;2023-08-17T15:20:36;30.50;71.60
26541;DHT22;14206;50.202;10.948;2023-08-17T15:23:03;30.40;72.40
26541;DHT22;14206;50.202;10.948;2023-08-17T15:25:30;30.40;72.90
26541;DHT22;14206;50.202;10.948;2023-08-17T15:27:57;30.30;73.80